Aérodrome :
LOGIN :

S'inscrire | Disclaimer

   EN    FR    IT 

 










Légende :    VFR   VFR Marginal   IFR   IFR Intensif   IFR Très Intensif
Visi : 
Plafond : 
>= 8 km
>= 3000ft
5 à 8 km
1000 à 3000 ft
1500m à 5 km
500 à 1000 ft
800 à 1500m
200 à 500 ft
< 800m
< 200 ft
Symboles :   Orages  Brouillard  Fortes neiges  Fortes précipitations  Vent > 20 kt
SIGMETs :   Divers  Orages  Givrage  Turbulence  Onde Orograph.  Cendres Volcan.






- Altitude de l'aérodrome : 14 ft
- Code IATA : BRE


EDDW - Bremen Neuenland

DERNIER METAR :
  • 172120Z 30007KT 9999 FEW018 BKN029 06/04 Q1034

METARs EXPIRÉS :
  • 172050Z 30006KT 9999 FEW018 BKN030 05/03 Q1034 NOSIG
  • 172020Z 30008KT 9999 BKN025 05/03 Q1033 NOSIG
  • 171950Z 29007KT 9999 FEW022 BKN033 05/03 Q1033 NOSIG
  • 171920Z 30007KT 280V360 9999 FEW021 BKN033 06/03 Q1033 NOSIG
  • 171850Z 30007KT 9999 SCT021 BKN034 06/03 Q1032 NOSIG

TAF TAF EDDW
Valide du 17 à 18h jusqu'au 18 à 18h UTC


171700Z 1718/1818 29008KT 9999 BKN025
BECMG 1800/1802 SCT009 BKN013
TEMPO 1801/1810 BKN007
PROB40
TEMPO 1804/1808 27003KT 2500 -DZ BR BKN004
BECMG 1810/1812 SCT013



MET'MAP, la Météo Aéronautique d'un coup d'oeil ! - Copyright ORBIFLY Décembre 2007 - Disclaimer

ORBIFLY MET'MAP TEAM :

Programmation & Développement : Alexandra Zaïnal
Sur une idée originale de : Baudouin d'Aumeries
Assistance à la programmation : Marc-Olivier Méhu
Soutien technique & logistique : Manuel Goepfert

Contact : metmap@orbifly.com




SOURCES & CREDITS :

   NOAA